Time;durP1;ratioP1;P1;durP2;ratioP2;P2;SDS_P1;SDS_P2;PMS_P1;PMS_P2;Temp;Humidity;BMP_temperature;BMP_pressure;BME280_temperature;BME280_humidity;BME280_pressure;Samples;Min_cycle;Max_cycle;Signal;HPM_P1;HPM_P2
2021/04/02 00:00:10;;;;;;;10.80;6.60;;;;;;;10.85;56.16;101973.56;5095483;28;20938;-47
2021/04/02 00:02:37;;;;;;;12.20;6.20;;;;;;;11.06;55.53;101981.72;5092534;28;20474;-46
2021/04/02 00:05:04;;;;;;;13.70;7.03;;;;;;;10.84;56.06;101974.38;5095478;28;20433;-47
2021/04/02 00:07:32;;;;;;;12.40;6.90;;;;;;;10.97;55.90;101972.53;5091649;28;20448;-47
2021/04/02 00:09:58;;;;;;;14.97;7.97;;;;;;;10.45;57.72;101963.41;5095225;28;20893;-47
2021/04/02 00:12:26;;;;;;;17.73;8.90;;;;;;;10.44;57.85;101959.94;5093701;28;20474;-47
2021/04/02 00:14:53;;;;;;;16.40;8.77;;;;;;;10.51;58.03;101958.63;5093366;28;20461;-48
2021/04/02 00:17:19;;;;;;;20.53;9.33;;;;;;;10.21;59.36;101968.78;5093638;28;20444;-47
2021/04/02 00:19:46;;;;;;;24.03;11.10;;;;;;;10.17;59.60;101961.66;5094655;28;20755;-47
2021/04/02 00:22:12;;;;;;;22.10;11.03;;;;;;;10.13;60.20;101961.47;5092924;28;20478;-47
2021/04/02 00:24:39;;;;;;;27.23;12.37;;;;;;;10.03;60.19;101961.66;5094723;28;20437;-47
2021/04/02 00:27:07;;;;;;;27.93;13.30;;;;;;;9.59;61.94;101961.50;5093797;28;20790;-47
2021/04/02 00:29:34;;;;;;;33.43;13.07;;;;;;;9.69;61.91;101968.13;5095214;28;20454;-48
2021/04/02 00:32:01;;;;;;;26.53;12.63;;;;;;;9.85;61.41;101964.84;5093340;28;20481;-48
2021/04/02 00:34:27;;;;;;;30.97;13.90;;;;;;;10.15;60.98;101963.25;5094677;28;20432;-46
2021/04/02 00:36:54;;;;;;;31.83;14.03;;;;;;;10.00;61.21;101964.03;5093846;28;20946;-46
2021/04/02 00:39:20;;;;;;;37.50;15.13;;;;;;;9.70;62.20;101969.03;5095001;28;20831;-46
2021/04/02 00:41:47;;;;;;;34.03;14.80;;;;;;;9.69;62.31;101967.25;5093036;28;20760;-48
2021/04/02 00:44:14;;;;;;;26.37;13.20;;;;;;;9.59;62.89;101961.50;5094829;28;20461;-46
2021/04/02 00:46:41;;;;;;;34.43;14.03;;;;;;;9.70;62.39;101966.47;5093732;28;20452;-47
2021/04/02 00:49:08;;;;;;;29.20;12.57;;;;;;;9.81;62.34;101968.06;5094908;28;20443;-48
2021/04/02 00:51:38;;;;;;;37.90;14.50;;;;;;;10.01;61.41;101971.00;5092984;28;20467;-48
2021/04/02 00:54:05;;;;;;;31.17;14.03;;;;;;;10.00;61.22;101971.78;5094577;28;20432;-46
2021/04/02 00:56:32;;;;;;;28.90;12.87;;;;;;;10.06;61.31;101969.59;5081209;28;20814;-46
2021/04/02 00:58:59;;;;;;;25.83;12.37;;;;;;;10.29;61.08;101969.28;5074665;28;20472;-46
2021/04/02 01:01:26;;;;;;;29.50;14.13;;;;;;;9.83;61.55;101966.44;5073109;28;20481;-48
2021/04/02 01:03:54;;;;;;;25.67;12.53;;;;;;;10.07;61.34;101966.25;5074620;28;20461;-46
2021/04/02 01:06:23;;;;;;;30.13;13.37;;;;;;;10.22;60.62;101965.41;5074240;28;20929;-46
2021/04/02 01:08:49;;;;;;;31.47;14.53;;;;;;;10.63;59.25;101969.69;5074579;28;20429;-47
2021/04/02 01:11:18;;;;;;;33.43;14.47;;;;;;;10.40;59.53;101956.22;5074664;28;20445;-46
2021/04/02 01:13:46;;;;;;;28.10;12.87;;;;;;;10.48;59.38;101958.44;5073861;28;20479;-46
2021/04/02 01:16:14;;;;;;;87.63;15.07;;;;;;;10.43;58.98;101952.09;5074910;28;20425;-46
2021/04/02 01:18:46;;;;;;;114.17;16.10;;;;;;;10.19;60.10;101954.88;5073235;28;20457;-48
2021/04/02 01:21:17;;;;;;;67.87;13.80;;;;;;;9.98;60.85;101961.38;5074726;28;20475;-46
2021/04/02 01:23:55;;;;;;;32.77;14.80;;;;;;;9.92;60.83;101949.78;5073479;28;20445;-48
2021/04/02 01:26:30;;;;;;;30.00;13.73;;;;;;;10.49;59.49;101950.78;5074393;28;20453;-49
2021/04/02 01:29:11;;;;;;;36.77;15.10;;;;;;;10.33;59.13;101945.44;5073855;28;20501;-47
2021/04/02 01:31:39;;;;;;;29.33;13.43;;;;;;;9.89;60.51;101950.47;5073210;28;20456;-46
2021/04/02 01:34:06;;;;;;;38.97;14.00;;;;;;;10.57;59.26;101940.94;5074362;28;20430;-47
2021/04/02 01:36:35;;;;;;;44.77;15.17;;;;;;;10.45;58.95;101935.91;5073292;28;20426;-48
2021/04/02 01:39:01;;;;;;;69.27;13.93;;;;;;;9.83;60.91;101940.69;5074423;28;20902;-47
2021/04/02 01:41:29;;;;;;;41.37;13.50;;;;;;;9.12;63.20;101938.66;5072698;28;20507;-48
2021/04/02 01:43:58;;;;;;;83.73;14.70;;;;;;;9.76;62.09;101941.09;5073963;28;20801;-47
2021/04/02 01:46:27;;;;;;;86.30;13.80;;;;;;;9.66;61.38;101937.03;5073394;28;20482;-49
2021/04/02 01:48:56;;;;;;;47.43;12.80;;;;;;;10.04;60.48;101942.81;5088015;28;20488;-48
2021/04/02 01:51:23;;;;;;;53.53;15.07;;;;;;;9.73;60.83;101934.03;5093237;28;20490;-46
2021/04/02 01:53:52;;;;;;;47.57;14.20;;;;;;;9.22;62.68;101943.63;5088875;28;20461;-49
2021/04/02 01:56:19;;;;;;;44.33;13.93;;;;;;;8.95;63.74;101947.81;5074815;28;20461;-48
2021/04/02 01:58:47;;;;;;;97.73;16.87;;;;;;;9.59;61.97;101950.31;5073778;28;20471;-48
2021/04/02 02:01:15;;;;;;;107.07;15.80;;;;;;;9.78;60.78;101939.50;5074417;28;20562;-46
2021/04/02 02:03:48;;;;;;;105.60;15.30;;;;;;;9.34;61.56;101942.66;5073247;28;20483;-47
2021/04/02 02:06:15;;;;;;;94.13;13.60;;;;;;;9.44;61.26;101942.47;5077276;28;20464;-46
2021/04/02 02:08:42;;;;;;;74.23;13.50;;;;;;;9.73;60.17;101943.44;5076945;28;20548;-46
2021/04/02 02:11:11;;;;;;;109.00;15.70;;;;;;;8.78;62.70;101953.59;5077866;28;20756;-48
2021/04/02 02:13:39;;;;;;;88.80;12.73;;;;;;;8.83;62.82;101953.94;5077102;28;20453;-47
2021/04/02 02:16:07;;;;;;;56.40;11.27;;;;;;;8.63;62.83;101956.00;5077964;28;20540;-46
2021/04/02 02:18:35;;;;;;;59.33;10.93;;;;;;;9.14;61.36;101949.94;5076294;28;20487;-48
2021/04/02 02:21:04;;;;;;;81.67;12.40;;;;;;;8.99;61.35;101953.28;5077767;28;20457;-46
2021/04/02 02:23:31;;;;;;;40.67;10.30;;;;;;;9.09;61.42;101951.31;5076505;28;20479;-49
2021/04/02 02:25:57;;;;;;;27.77;11.57;;;;;;;9.24;61.73;101936.91;5077857;28;20479;-46
2021/04/02 02:28:24;;;;;;;47.40;10.67;;;;;;;9.08;60.46;101934.09;5074890;28;20488;-45
2021/04/02 02:30:52;;;;;;;36.17;10.10;;;;;;;9.02;60.89;101921.69;5077320;28;20433;-48
2021/04/02 02:33:18;;;;;;;28.53;10.10;;;;;;;8.48;62.46;101927.53;5076400;28;20507;-48
2021/04/02 02:35:45;;;;;;;46.10;11.40;;;;;;;9.01;61.26;101923.38;5077852;28;20493;-49
2021/04/02 02:38:13;;;;;;;41.97;10.53;;;;;;;8.97;60.79;101915.38;5076199;28;20526;-46
2021/04/02 02:40:39;;;;;;;25.17;11.00;;;;;;;9.12;61.07;101913.78;5077290;28;20467;-46
2021/04/02 02:43:07;;;;;;;32.87;8.97;;;;;;;8.51;62.09;101914.91;5076172;28;20947;-46
2021/04/02 02:45:34;;;;;;;46.50;11.53;;;;;;;8.00;64.43;101913.91;5077345;28;20463;-46
2021/04/02 02:48:03;;;;;;;35.93;9.10;;;;;;;7.79;64.28;101919.31;5076089;28;20483;-46
2021/04/02 02:50:31;;;;;;;80.40;10.40;;;;;;;8.08;64.36;101907.66;5082487;28;20452;-46
2021/04/02 02:52:58;;;;;;;81.37;10.10;;;;;;;8.26;63.16;101911.41;5076077;28;20537;-46
2021/04/02 02:55:28;;;;;;;38.30;9.43;;;;;;;8.50;62.14;101913.09;5077285;28;20989;-47
2021/04/02 02:57:56;;;;;;;64.27;10.37;;;;;;;8.49;62.14;101906.19;5076494;28;20467;-46
2021/04/02 03:00:26;;;;;;;182.47;13.30;;;;;;;8.36;62.67;101901.84;5076975;28;20435;-46
2021/04/02 03:02:57;;;;;;;261.03;15.73;;;;;;;8.22;63.06;101894.88;5076482;28;20493;-48
2021/04/02 03:05:26;;;;;;;134.03;10.00;;;;;;;8.56;61.58;101888.63;5077187;28;20433;-49
2021/04/02 03:07:55;;;;;;;33.40;8.47;;;;;;;7.85;63.80;101882.91;5076176;28;20926;-46
2021/04/02 03:10:22;;;;;;;108.93;10.43;;;;;;;7.96;64.04;101881.09;5076500;28;20454;-46
2021/04/02 03:12:50;;;;;;;34.20;8.03;;;;;;;7.39;65.67;101886.50;5075913;28;20482;-45
2021/04/02 03:15:18;;;;;;;34.33;8.10;;;;;;;7.72;65.07;101887.94;5076829;28;20461;-45
2021/04/02 03:17:48;;;;;;;47.37;9.07;;;;;;;7.63;65.24;101886.50;5076041;28;20455;-46
2021/04/02 03:20:15;;;;;;;117.33;10.43;;;;;;;7.95;64.26;101885.31;5076321;28;20876;-48
2021/04/02 03:22:42;;;;;;;39.53;9.17;;;;;;;7.66;64.65;101894.44;5075914;28;20474;-46
2021/04/02 03:25:11;;;;;;;56.53;8.03;;;;;;;7.64;63.84;101893.41;5076549;28;20433;-47
2021/04/02 03:27:40;;;;;;;101.53;10.63;;;;;;;7.92;63.30;101887.69;5075860;28;20475;-47
2021/04/02 03:30:10;;;;;;;86.73;9.20;;;;;;;7.85;62.86;101893.19;5076630;28;20463;-47
2021/04/02 03:32:38;;;;;;;63.50;8.63;;;;;;;7.63;64.21;101894.19;5075574;28;20481;-46
2021/04/02 03:35:06;;;;;;;86.30;9.80;;;;;;;7.81;62.72;101876.63;5076401;28;20561;-49
2021/04/02 03:37:34;;;;;;;104.80;10.60;;;;;;;7.97;63.63;101882.88;5075602;28;20459;-47
2021/04/02 03:40:01;;;;;;;28.87;8.73;;;;;;;7.60;64.36;101883.72;5076522;28;20462;-46
2021/04/02 03:42:28;;;;;;;121.00;11.20;;;;;;;7.84;64.01;101878.53;5074905;28;20447;-47
2021/04/02 03:44:56;;;;;;;142.00;10.97;;;;;;;7.63;64.48;101877.91;5076414;28;20465;-46
2021/04/02 03:47:24;;;;;;;48.87;9.90;;;;;;;7.59;64.59;101879.34;5075348;28;20992;-47
2021/04/02 03:49:51;;;;;;;180.57;15.10;;;;;;;7.55;65.59;101883.38;5076231;28;20433;-45
2021/04/02 03:52:26;;;;;;;80.27;12.40;;;;;;;7.79;65.04;101890.19;5074822;28;20923;-48
2021/04/02 03:54:53;;;;;;;36.20;10.43;;;;;;;7.73;64.64;101888.03;5076326;28;20464;-46
2021/04/02 03:57:23;;;;;;;106.37;13.40;;;;;;;7.53;65.03;101889.16;5075479;28;20471;-47
2021/04/02 03:59:52;;;;;;;46.50;11.57;;;;;;;7.36;66.30;101890.53;5081457;28;20546;-46
2021/04/02 04:02:19;;;;;;;50.53;12.60;;;;;;;7.46;65.07;101884.38;5074817;28;20561;-46
2021/04/02 04:04:48;;;;;;;43.63;12.83;;;;;;;7.79;64.34;101887.59;5075787;28;20467;-46
2021/04/02 04:07:17;;;;;;;93.63;15.67;;;;;;;7.47;65.23;101896.44;5074723;28;20540;-46
2021/04/02 04:09:44;;;;;;;45.30;11.50;;;;;;;7.54;65.09;101890.97;5076022;28;20458;-46
2021/04/02 04:12:16;;;;;;;80.70;14.67;;;;;;;7.68;64.85;101884.25;5072323;28;20482;-45
2021/04/02 04:14:44;;;;;;;36.93;14.50;;;;;;;7.89;64.00;101879.75;5075884;28;20454;-47
2021/04/02 04:17:12;;;;;;;30.10;14.50;;;;;;;8.17;62.99;101881.69;5074279;28;20918;-46
2021/04/02 04:19:39;;;;;;;44.23;12.40;;;;;;;7.26;64.79;101883.81;5075912;28;20454;-46
2021/04/02 04:22:07;;;;;;;32.20;13.10;;;;;;;7.07;65.37;101889.28;5073989;28;20457;-45
2021/04/02 04:24:36;;;;;;;36.63;14.00;;;;;;;7.43;64.80;101883.38;5075670;28;20492;-45
2021/04/02 04:27:04;;;;;;;34.00;13.53;;;;;;;7.49;64.57;101882.03;5074851;28;20452;-47
2021/04/02 04:29:35;;;;;;;44.50;13.80;;;;;;;7.39;64.04;101878.78;5075216;28;20779;-46
2021/04/02 04:32:03;;;;;;;52.87;13.13;;;;;;;7.52;63.56;101871.97;5073997;28;20474;-46
2021/04/02 04:34:30;;;;;;;22.47;11.90;;;;;;;7.15;65.00;101880.47;5075467;28;20440;-48
2021/04/02 04:36:57;;;;;;;37.97;13.20;;;;;;;7.45;63.98;101885.16;5074394;28;20471;-46
2021/04/02 04:39:26;;;;;;;25.07;14.00;;;;;;;7.13;65.43;101887.19;5075537;28;20455;-46
2021/04/02 04:41:53;;;;;;;58.17;15.27;;;;;;;7.45;64.01;101892.88;5074240;28;20453;-46
2021/04/02 04:44:21;;;;;;;23.83;12.53;;;;;;;7.01;66.15;101894.84;5075162;28;20459;-47
2021/04/02 04:46:48;;;;;;;35.07;12.00;;;;;;;6.55;64.74;101884.56;5079377;28;20524;-46
2021/04/02 04:49:14;;;;;;;33.33;14.20;;;;;;;6.86;65.88;101887.78;5075454;28;20457;-45
2021/04/02 04:51:42;;;;;;;25.97;12.47;;;;;;;6.73;65.25;101888.53;5073718;28;20450;-47
2021/04/02 04:54:12;;;;;;;54.43;12.00;;;;;;;6.25;66.71;101884.03;5075338;28;20455;-46
2021/04/02 04:56:40;;;;;;;21.60;11.73;;;;;;;6.84;64.99;101879.09;5074381;28;20450;-46
2021/04/02 04:59:09;;;;;;;33.83;12.45;;;;;;;6.74;65.43;101877.50;5075439;28;20208;-45
2021/04/02 05:01:40;;;;;;;21.63;10.80;;;;;;;7.00;65.17;101869.97;5072825;28;20225;-46
2021/04/02 05:04:07;;;;;;;23.77;9.90;;;;;;;6.88;64.82;101869.97;5075311;28;20455;-46
2021/04/02 05:06:35;;;;;;;23.73;10.67;;;;;;;7.16;64.22;101872.00;5073987;28;20560;-46
2021/04/02 05:09:03;;;;;;;25.43;11.10;;;;;;;6.80;65.19;101866.81;5075039;28;20437;-46
2021/04/02 05:11:31;;;;;;;20.27;10.30;;;;;;;6.74;64.85;101866.34;5074130;28;20547;-46
2021/04/02 05:13:59;;;;;;;25.50;11.17;;;;;;;7.06;63.95;101872.06;5074951;28;20489;-46
2021/04/02 05:16:26;;;;;;;20.53;10.30;;;;;;;7.23;63.90;101870.78;5074169;28;20432;-46
2021/04/02 05:18:52;;;;;;;26.10;11.77;;;;;;;7.20;62.45;101871.44;5074941;28;20493;-46
2021/04/02 05:21:19;;;;;;;24.70;10.07;;;;;;;6.85;63.95;101875.75;5074564;28;20827;-46
2021/04/02 05:23:46;;;;;;;18.03;9.13;;;;;;;6.64;64.68;101874.13;5073758;28;20544;-47
2021/04/02 05:26:14;;;;;;;25.30;11.57;;;;;;;6.79;64.38;101867.59;5075177;28;20478;-46
2021/04/02 05:28:41;;;;;;;24.87;10.60;;;;;;;7.21;63.32;101874.88;5074088;28;20482;-46
2021/04/02 05:31:10;;;;;;;24.63;11.40;;;;;;;7.43;62.75;101873.13;5074726;28;20753;-46
2021/04/02 05:33:36;;;;;;;22.70;10.23;;;;;;;7.28;62.90;101869.44;5073735;28;20574;-46
2021/04/02 05:36:03;;;;;;;16.37;8.87;;;;;;;7.23;62.65;101873.34;5074961;28;20465;-46
2021/04/02 05:38:30;;;;;;;18.67;8.20;;;;;;;7.44;62.62;101874.03;5073442;28;20942;-46
2021/04/02 05:41:01;;;;;;;20.03;9.07;;;;;;;7.65;62.78;101873.78;5076643;28;20890;-47
2021/04/02 05:43:32;;;;;;;17.67;8.43;;;;;;;7.02;63.18;101866.72;5077736;28;20900;-46
2021/04/02 05:45:59;;;;;;;16.90;8.10;;;;;;;7.39;63.33;101865.97;5078595;28;20513;-46
2021/04/02 05:48:27;;;;;;;17.17;8.47;;;;;;;7.51;62.54;101876.25;5077367;28;20464;-47
2021/04/02 05:50:55;;;;;;;18.73;9.00;;;;;;;7.61;61.47;101877.78;5077817;28;20914;-49
2021/04/02 05:53:22;;;;;;;24.00;8.60;;;;;;;6.90;63.78;101883.78;5077222;28;20922;-46
2021/04/02 05:55:49;;;;;;;19.93;9.17;;;;;;;7.20;63.91;101878.25;5084149;28;20462;-46
2021/04/02 05:58:16;;;;;;;18.23;8.77;;;;;;;7.69;62.67;101870.63;5077771;28;20479;-48
2021/04/02 06:00:42;;;;;;;22.53;9.03;;;;;;;7.57;62.16;101876.69;5077852;28;20546;-46
2021/04/02 06:03:09;;;;;;;21.13;8.03;;;;;;;7.59;62.23;101866.50;5077112;28;20794;-46
2021/04/02 06:05:37;;;;;;;14.53;6.87;;;;;;;7.78;61.58;101863.56;5078132;28;20464;-48
2021/04/02 06:08:07;;;;;;;22.00;8.07;;;;;;;8.15;60.97;101861.81;5077099;28;20461;-46
2021/04/02 06:10:33;;;;;;;22.80;8.23;;;;;;;8.02;61.70;101860.06;5077850;28;20496;-47
2021/04/02 06:13:00;;;;;;;16.30;6.20;;;;;;;8.27;60.39;101866.91;5098918;28;20478;-47
2021/04/02 06:15:34;;;;;;;15.47;6.30;;;;;;;7.93;61.81;101861.19;5082656;28;20540;-46
2021/04/02 06:18:04;;;;;;;22.93;7.23;;;;;;;7.50;63.20;101856.50;5117271;28;20755;-49
2021/04/02 06:20:33;;;;;;;20.53;6.20;;;;;;;7.52;62.69;101854.00;5105039;28;20890;-46
2021/04/02 06:23:11;;;;;;;23.33;6.90;;;;;;;7.83;62.31;101864.81;5076269;28;20953;-46
2021/04/02 06:25:40;;;;;;;17.47;6.50;;;;;;;7.85;61.93;101862.34;5077984;28;20464;-46
2021/04/02 06:28:11;;;;;;;17.53;5.97;;;;;;;8.05;61.87;101862.84;5076938;28;20478;-46
2021/04/02 06:30:39;;;;;;;20.07;7.10;;;;;;;7.83;62.67;101856.19;5116959;28;20448;-46
2021/04/02 06:33:07;;;;;;;12.87;5.77;;;;;;;7.86;62.80;101850.38;5117070;28;20462;-46
2021/04/02 06:35:36;;;;;;;19.10;6.63;;;;;;;8.34;61.47;101858.81;5118457;28;20469;-48
2021/04/02 06:38:05;;;;;;;25.70;7.40;;;;;;;7.87;62.03;101857.28;5116845;28;20543;-46
2021/04/02 06:40:32;;;;;;;16.40;6.50;;;;;;;8.04;62.20;101864.50;5117787;28;20527;-46
2021/04/02 06:43:00;;;;;;;12.03;6.93;;;;;;;7.91;62.28;101865.34;5116865;28;20477;-46
2021/04/02 06:45:28;;;;;;;15.80;6.63;;;;;;;8.06;61.75;101859.50;5116229;28;20935;-46
2021/04/02 06:48:08;;;;;;;20.10;5.67;;;;;;;8.05;61.40;101855.13;5076204;28;20553;-46
2021/04/02 06:50:35;;;;;;;14.37;5.50;;;;;;;7.64;62.74;101857.44;5076313;28;20561;-46
2021/04/02 06:53:03;;;;;;;13.17;4.67;;;;;;;7.90;62.20;101857.53;5076016;28;20461;-46
2021/04/02 06:55:30;;;;;;;33.80;13.80;;;;;;;8.05;62.33;101861.16;5082602;28;20589;-46
2021/04/02 06:58:07;;;;;;;24.70;10.60;;;;;;;8.46;61.05;101854.50;5076354;28;20475;-46
2021/04/02 07:00:37;;;;;;;12.97;4.73;;;;;;;8.35;60.95;101845.16;5076911;28;20429;-46
2021/04/02 07:03:07;;;;;;;9.57;3.73;;;;;;;7.87;61.80;101847.91;5075727;28;20465;-46
2021/04/02 07:05:34;;;;;;;12.97;3.90;;;;;;;8.09;61.17;101846.84;5077115;28;20438;-45
2021/04/02 07:08:04;;;;;;;19.90;3.77;;;;;;;8.15;60.01;101842.13;5075458;28;20956;-46
2021/04/02 07:10:32;;;;;;;16.93;3.70;;;;;;;8.31;59.60;101838.91;5076375;28;20434;-47
2021/04/02 07:13:01;;;;;;;18.37;3.57;;;;;;;8.28;59.55;101843.88;5076112;28;20475;-47
2021/04/02 07:15:31;;;;;;;7.83;2.77;;;;;;;8.29;59.84;101852.47;5076972;28;20455;-46
2021/04/02 07:17:58;;;;;;;26.60;9.70;;;;;;;8.45;59.66;101842.44;5077396;28;20475;-45
2021/04/02 07:20:24;;;;;;;9.73;3.47;;;;;;;8.48;58.93;101846.91;5088504;28;20520;-46
2021/04/02 07:22:52;;;;;;;83.47;29.80;;;;;;;8.54;58.64;101851.59;5074560;28;20465;-47
2021/04/02 07:25:19;;;;;;;23.20;7.03;;;;;;;8.49;58.25;101841.88;5076814;28;20461;-46
2021/04/02 07:27:45;;;;;;;11.83;2.40;;;;;;;8.58;57.96;101838.16;5075930;28;20826;-48
2021/04/02 07:30:14;;;;;;;23.03;3.20;;;;;;;8.73;58.33;101821.16;5076219;28;20435;-47
2021/04/02 07:32:42;;;;;;;14.70;4.07;;;;;;;8.64;58.28;101823.13;5074807;28;20487;-47
2021/04/02 07:35:16;;;;;;;15.83;3.83;;;;;;;8.49;58.07;101823.88;5076299;28;20894;-45
2021/04/02 07:37:43;;;;;;;13.50;3.73;;;;;;;8.50;56.83;101817.94;5077385;28;20458;-46
2021/04/02 07:40:11;;;;;;;10.83;2.93;;;;;;;8.68;56.89;101809.69;5096551;28;20751;-47
2021/04/02 07:42:48;;;;;;;16.37;3.17;;;;;;;8.34;56.89;101817.66;5095443;28;20475;-47
2021/04/02 07:45:19;;;;;;;29.77;7.90;;;;;;;8.73;56.36;101812.56;5096531;28;20428;-46
2021/04/02 07:47:51;;;;;;;7.03;2.40;;;;;;;9.01;55.36;101797.25;5095170;28;20449;-46
2021/04/02 07:50:34;;;;;;;10.80;3.30;;;;;;;8.78;56.24;101793.19;5096157;28;20548;-46
2021/04/02 07:53:00;;;;;;;14.77;2.30;;;;;;;8.82;55.70;101786.56;5095631;28;20480;-46
2021/04/02 07:55:27;;;;;;;8.73;3.10;;;;;;;9.11;55.41;101787.53;5096399;28;20432;-46
2021/04/02 07:57:56;;;;;;;16.50;3.50;;;;;;;9.09;55.83;101791.69;5107862;28;20463;-46
2021/04/02 08:00:25;;;;;;;17.30;6.00;;;;;;;9.01;55.81;101794.66;5116153;28;20435;-46
2021/04/02 08:03:13;;;;;;;16.27;4.10;;;;;;;9.12;55.79;101776.47;5114678;28;20481;-45
2021/04/02 08:05:46;;;;;;;14.50;3.73;;;;;;;9.21;54.69;101777.03;5116631;28;20540;-46
2021/04/02 08:08:15;;;;;;;16.13;3.20;;;;;;;9.02;55.63;101780.09;5114514;28;20486;-46
2021/04/02 08:11:00;;;;;;;13.83;2.83;;;;;;;9.26;55.79;101761.88;5116190;28;20463;-46
2021/04/02 08:13:28;;;;;;;12.03;3.23;;;;;;;9.20;55.44;101754.66;5115669;28;20447;-46
2021/04/02 08:15:57;;;;;;;17.47;3.90;;;;;;;9.00;56.58;101771.41;5116391;28;20455;-47
2021/04/02 08:18:26;;;;;;;14.47;2.70;;;;;;;8.90;56.42;101780.22;5114588;28;20516;-47
2021/04/02 08:20:55;;;;;;;16.60;3.33;;;;;;;9.08;56.04;101779.63;5091790;28;20456;-45
2021/04/02 08:23:23;;;;;;;13.10;2.40;;;;;;;9.21;55.86;101766.72;5074407;28;20453;-48
2021/04/02 08:25:54;;;;;;;19.50;3.10;;;;;;;8.95;56.39;101777.94;5075739;28;20460;-46
2021/04/02 08:28:25;;;;;;;16.37;2.93;;;;;;;9.03;55.40;101774.19;5080016;28;20452;-46
2021/04/02 08:30:53;;;;;;;22.87;3.70;;;;;;;9.21;54.84;101766.72;5094390;28;20528;-47
2021/04/02 08:33:20;;;;;;;22.70;3.77;;;;;;;9.03;55.02;101782.78;5074017;28;20457;-47
2021/04/02 08:35:49;;;;;;;14.67;3.13;;;;;;;9.35;54.78;101780.50;5075638;28;20436;-50
2021/04/02 08:38:15;;;;;;;13.53;3.57;;;;;;;9.42;54.05;101776.59;5074026;28;20489;-46
2021/04/02 08:40:42;;;;;;;13.23;3.37;;;;;;;9.76;54.26;101790.69;5091547;28;20883;-46
2021/04/02 08:43:12;;;;;;;14.90;3.13;;;;;;;9.73;53.83;101782.00;5094459;28;20478;-46
2021/04/02 08:45:59;;;;;;;15.27;3.40;;;;;;;9.73;53.51;101788.81;5095470;28;20454;-46
2021/04/02 08:48:26;;;;;;;10.43;1.63;;;;;;;9.11;54.91;101782.38;5093819;28;20457;-48
2021/04/02 08:50:54;;;;;;;14.33;3.43;;;;;;;9.31;54.25;101778.50;5095788;28;20463;-47
2021/04/02 08:53:22;;;;;;;19.83;3.40;;;;;;;9.52;54.30;101770.34;5114461;28;20480;-48
2021/04/02 08:55:48;;;;;;;19.53;3.90;;;;;;;9.72;54.05;101776.72;5115956;28;20457;-47
2021/04/02 08:58:15;;;;;;;12.10;3.87;;;;;;;9.79;54.47;101778.88;5114669;28;20473;-47
2021/04/02 09:00:42;;;;;;;12.47;3.37;;;;;;;9.72;53.83;101792.19;5115272;28;20424;-46
2021/04/02 09:03:09;;;;;;;7.47;2.77;;;;;;;9.52;53.63;101793.53;5114397;28;20460;-48
2021/04/02 09:05:42;;;;;;;23.13;4.43;;;;;;;9.75;53.22;101791.50;5115765;28;20434;-47
2021/04/02 09:08:10;;;;;;;21.37;2.70;;;;;;;9.64;53.94;101798.56;5114199;28;20500;-47
2021/04/02 09:10:37;;;;;;;25.03;4.17;;;;;;;9.46;53.95;101799.19;5115220;28;20510;-49
2021/04/02 09:13:03;;;;;;;20.50;3.43;;;;;;;9.97;52.31;101788.53;5114042;28;20466;-48
2021/04/02 09:15:32;;;;;;;14.63;3.30;;;;;;;9.84;52.85;101792.94;5101790;28;20470;-46
2021/04/02 09:18:14;;;;;;;8.83;2.30;;;;;;;9.99;52.92;101784.34;5097094;28;20817;-47
2021/04/02 09:20:41;;;;;;;3.47;1.20;;;;;;;9.57;53.52;101775.00;5097644;28;20450;-47
2021/04/02 09:23:08;;;;;;;16.10;2.87;;;;;;;9.64;53.91;101776.25;5096872;28;20485;-47
2021/04/02 09:25:38;;;;;;;14.17;2.90;;;;;;;10.17;52.37;101770.81;5098419;28;20523;-47
2021/04/02 09:28:05;;;;;;;10.93;2.77;;;;;;;10.26;52.55;101768.78;5097681;28;20476;-48
2021/04/02 09:30:32;;;;;;;23.90;3.83;;;;;;;10.44;53.07;101750.94;5097965;28;20496;-47
2021/04/02 09:32:59;;;;;;;11.60;3.27;;;;;;;10.15;52.38;101756.94;5096714;28;20527;-47
2021/04/02 09:35:26;;;;;;;31.83;4.37;;;;;;;10.39;52.73;101758.38;5096147;28;20465;-49
2021/04/02 09:37:53;;;;;;;10.40;2.50;;;;;;;10.50;52.28;101755.56;5102372;28;20575;-48
2021/04/02 09:40:19;;;;;;;20.27;5.37;;;;;;;10.36;52.83;101752.16;5092662;28;20550;-47
2021/04/02 09:42:49;;;;;;;16.70;3.50;;;;;;;10.35;51.24;101759.00;5091753;28;20475;-47
2021/04/02 09:45:16;;;;;;;4.67;2.47;;;;;;;10.06;50.53;101768.47;5097861;28;20540;-47
2021/04/02 09:47:44;;;;;;;19.80;3.90;;;;;;;10.30;51.07;101757.81;5097477;28;20485;-48
2021/04/02 09:50:12;;;;;;;20.53;3.87;;;;;;;10.69;53.03;101757.53;5098375;28;20428;-47
2021/04/02 09:52:40;;;;;;;30.83;5.10;;;;;;;10.62;50.99;101752.81;5095298;28;20853;-48
2021/04/02 09:55:08;;;;;;;12.57;3.30;;;;;;;10.06;50.99;101753.00;5078378;28;20425;-48
2021/04/02 09:57:35;;;;;;;14.70;3.70;;;;;;;10.49;51.29;101748.63;5076963;28;20475;-50
2021/04/02 10:00:05;;;;;;;10.10;3.77;;;;;;;9.86;51.40;101754.38;5078323;28;20521;-47
2021/04/02 10:02:33;;;;;;;14.83;4.10;;;;;;;10.24;51.78;101753.22;5076585;28;20461;-48
2021/04/02 10:05:00;;;;;;;24.07;4.40;;;;;;;10.57;50.95;101737.06;5080558;28;20512;-50
2021/04/02 10:07:27;;;;;;;13.50;3.93;;;;;;;10.34;51.75;101733.09;5076284;28;20502;-47
2021/04/02 10:09:53;;;;;;;25.27;4.30;;;;;;;10.15;52.12;101741.47;5081366;28;20783;-47
2021/04/02 10:12:20;;;;;;;13.00;4.13;;;;;;;10.29;51.71;101735.41;5097071;28;20481;-48
2021/04/02 10:14:48;;;;;;;19.07;4.00;;;;;;;10.38;51.09;101748.88;5098295;28;20429;-47
2021/04/02 10:17:15;;;;;;;15.10;3.10;;;;;;;10.12;52.89;101747.31;5097386;28;20939;-48
2021/04/02 10:19:42;;;;;;;14.17;4.10;;;;;;;9.93;52.81;101740.16;5097581;28;20437;-47
2021/04/02 10:22:09;;;;;;;12.93;4.27;;;;;;;10.57;52.40;101737.06;5095766;28;20556;-48
2021/04/02 10:24:36;;;;;;;14.80;4.20;;;;;;;10.78;51.94;101736.50;5097116;28;20421;-47
2021/04/02 10:27:04;;;;;;;19.60;4.00;;;;;;;10.30;51.86;101720.84;5095335;28;20481;-47
2021/04/02 10:29:31;;;;;;;9.57;3.53;;;;;;;10.31;51.80;101735.50;5097843;28;20458;-47
2021/04/02 10:31:58;;;;;;;18.97;4.17;;;;;;;10.35;52.46;101716.81;5095676;28;20464;-47
2021/04/02 10:34:25;;;;;;;13.13;3.60;;;;;;;10.11;52.67;101736.09;5097518;28;20454;-48
2021/04/02 10:36:52;;;;;;;16.70;3.47;;;;;;;9.93;53.25;101732.44;5095930;28;20944;-47
2021/04/02 10:39:19;;;;;;;15.20;3.90;;;;;;;10.27;52.13;101717.25;5098011;28;20516;-47
2021/04/02 10:41:45;;;;;;;14.03;3.67;;;;;;;10.24;52.51;101731.66;5096442;28;20549;-49
2021/04/02 10:44:12;;;;;;;12.80;3.63;;;;;;;10.66;52.10;101719.50;5092972;28;20473;-47
2021/04/02 10:46:39;;;;;;;11.27;3.33;;;;;;;10.81;50.78;101718.59;5075924;28;20786;-51
2021/04/02 10:49:05;;;;;;;15.90;3.97;;;;;;;10.61;51.32;101695.13;5077269;28;20451;-47
2021/04/02 10:51:33;;;;;;;23.27;4.30;;;;;;;10.33;52.90;101713.28;5075749;28;20552;-47
2021/04/02 10:54:01;;;;;;;12.83;3.80;;;;;;;10.81;50.89;101705.69;5077329;28;20511;-48
2021/04/02 10:56:29;;;;;;;24.43;3.27;;;;;;;10.72;50.96;101700.03;5076711;28;20455;-46
2021/04/02 10:58:55;;;;;;;12.57;2.30;;;;;;;10.43;51.19;101712.13;5082507;28;20485;-48
2021/04/02 11:01:22;;;;;;;18.20;3.43;;;;;;;10.17;52.17;101714.06;5075575;28;20454;-47
2021/04/02 11:03:49;;;;;;;11.80;2.87;;;;;;;10.36;51.67;101713.47;5077270;28;20461;-47
2021/04/02 11:06:16;;;;;;;10.43;2.80;;;;;;;10.26;51.88;101714.63;5077060;28;20546;-47
2021/04/02 11:08:43;;;;;;;8.63;3.03;;;;;;;10.25;51.82;101693.09;5075458;28;20559;-47
2021/04/02 11:11:10;;;;;;;16.67;4.43;;;;;;;10.33;51.90;101701.28;5076641;28;20481;-47
2021/04/02 11:13:37;;;;;;;8.07;3.40;;;;;;;10.71;50.92;101693.09;5076067;28;20467;-48
2021/04/02 11:16:04;;;;;;;17.77;3.80;;;;;;;10.26;51.11;101693.97;5076715;28;20768;-47
2021/04/02 11:18:31;;;;;;;13.63;3.13;;;;;;;10.55;50.67;101687.03;5075453;28;20562;-47
2021/04/02 11:20:58;;;;;;;10.17;3.90;;;;;;;11.12;50.51;101680.69;5076469;28;20463;-49
2021/04/02 11:23:26;;;;;;;20.47;3.60;;;;;;;10.92;50.52;101681.34;5075408;28;20506;-47